Impacts TAF Board
For situational awareness. Not to be used for flight planning purposes.
IDs:

KTPA - Tampa Intl Arpt, FL, US

Issued at 1505 UTC 20 Jan 2019
Updated at 1719 UTC 20 Jan 2019
Potential Impact None Slight Moderate High
Time<<21/06Z 21/07Z 21/08Z 21/09Z 21/10Z 21/11Z 21/12Z 21/13Z 21/14Z 21/15Z 21/16Z 21/17Z 21/18Z>>
Type PRVL PRVL PRVL PRVL PRVL PRVL PRVL PRVL PRVL PRVL PRVL PRVL
VIS >6 >6 >6 >6 >6 >6 >6 >6 >6 >6 >6 >6
CIG -- -- -- -- -- -- -- -- -- -- -- --
Cover SCT SCT SCT SCT SKC SKC SKC SKC SKC SKC SKC SKC
FltCat VFR VFR VFR VFR VFR VFR VFR VFR VFR VFR VFR VFR
WX -- -- -- -- -- -- -- -- -- -- -- --
WDir 330 330 330 330 20 20 20 20 20 20 20 20
WSpd 8 8 8 8 6 6 6 6 6 6 6 6
WGst -- -- -- -- -- -- -- -- -- -- -- --
Raw TAF
KTPA 201505Z 2015/2118 30015G25KT P6SM SCT030 BKN050
  FM202100 31016G25KT P6SM SCT025 SCT250
  FM210000 33008KT P6SM SCT250
  FM211000 02006KT P6SM SKC


METAR Board
Radar Display
Forecast Discussion
For situational awareness. Not to be used for flight planning purposes.